Terminal Aerodrome Forecast
Issued by NWS Northern Indiana

Home | Current Version | Previous Version | Text Only | Print | Product List | Glossary On
Versions: 1 2 3 4 5 6 7 8 9 10 11 12 13 14 15 16 17 18 19 20
000
FTUS43 KIWX 132300 RRA
TAFFWA
TAF
KFWA 132339Z 1400/1424 33005KT P6SM SCT050
     FM140200 00000KT P6SM SKC
      TEMPO 1409/1413 3SM BR
     FM141400 23006KT P6SM SCT040=

USA.gov is the U.S. government's official web portal to all federal, state and local government web resources and services.